LTCK/MSR METAR and TAF weather

Enter ICAO airport designator
Station Type Date Time Source
LTCK METAR 2022/01/18 05:50 UTC NOAA

LTCK 180550Z 08003KT 050V110 3000 BR FEW025 SCT070 BKN150 M19/M21 Q1021


Station Type Date Time Source
LTCK Decoded METAR 2022/01/18 05:50 UTC NOAA

Mus Tur-Afb , Turkey (LTCK) 38-45N 041-40E
Jan 18, 2022 - 12:50 AM EST / 2022.01.18 0550 UTC
Wind: from the E (080 degrees) at 3 MPH (3 KT) (direction variable):0
Visibility: 1 mile(s):0
Sky conditions: mostly cloudy
Weather: mist
Temperature: -2 F (-19 C)
Dew Point: -5 F (-21 C)
Relative Humidity: 84%
Pressure (altimeter): 30.15 in. Hg (1021 hPa)
ob: LTCK 180550Z 08003KT 050V110 3000 BR FEW025 SCT070 BKN150 M19/M21 Q1021
cycle: 6

Station Type Date Time Source
LTCK TAF UTC NOAA

Error!

Example: see airport list